sensor_id;sensor_type;location;lat;lon;timestamp;P1;durP1;ratioP1;P2;durP2;ratioP2
13832;SDS011;6987;19.472;-99.276;2023-06-24T00:02:10;7.47;;;4.10;;
13832;SDS011;6987;19.472;-99.276;2023-06-24T00:04:39;8.63;;;4.70;;
13832;SDS011;6987;19.472;-99.276;2023-06-24T00:07:10;10.15;;;4.18;;
13832;SDS011;6987;19.472;-99.276;2023-06-24T00:09:39;7.80;;;4.20;;
13832;SDS011;6987;19.472;-99.276;2023-06-24T00:12:08;16.08;;;4.53;;
13832;SDS011;6987;19.472;-99.276;2023-06-24T00:14:45;11.50;;;4.30;;
13832;SDS011;6987;19.472;-99.276;2023-06-24T00:17:14;9.15;;;4.45;;
13832;SDS011;6987;19.472;-99.276;2023-06-24T00:19:44;10.25;;;4.13;;
13832;SDS011;6987;19.472;-99.276;2023-06-24T00:22:15;9.98;;;4.13;;
13832;SDS011;6987;19.472;-99.276;2023-06-24T00:24:44;15.90;;;4.47;;
13832;SDS011;6987;19.472;-99.276;2023-06-24T00:27:13;6.47;;;4.35;;
13832;SDS011;6987;19.472;-99.276;2023-06-24T00:29:43;7.88;;;4.50;;
13832;SDS011;6987;19.472;-99.276;2023-06-24T00:32:12;7.43;;;3.80;;
13832;SDS011;6987;19.472;-99.276;2023-06-24T00:34:41;8.80;;;3.80;;
13832;SDS011;6987;19.472;-99.276;2023-06-24T00:37:15;4.78;;;3.53;;
13832;SDS011;6987;19.472;-99.276;2023-06-24T00:39:44;8.98;;;3.70;;
13832;SDS011;6987;19.472;-99.276;2023-06-24T00:42:13;10.13;;;4.05;;
13832;SDS011;6987;19.472;-99.276;2023-06-24T00:44:42;5.78;;;3.00;;
13832;SDS011;6987;19.472;-99.276;2023-06-24T00:47:13;10.15;;;3.30;;
13832;SDS011;6987;19.472;-99.276;2023-06-24T00:49:43;5.18;;;3.20;;
13832;SDS011;6987;19.472;-99.276;2023-06-24T00:52:14;4.07;;;3.28;;
13832;SDS011;6987;19.472;-99.276;2023-06-24T00:54:43;8.65;;;3.85;;
13832;SDS011;6987;19.472;-99.276;2023-06-24T00:57:13;4.00;;;2.70;;
13832;SDS011;6987;19.472;-99.276;2023-06-24T00:59:43;6.13;;;3.38;;
13832;SDS011;6987;19.472;-99.276;2023-06-24T01:02:14;6.32;;;2.90;;
13832;SDS011;6987;19.472;-99.276;2023-06-24T01:04:43;3.05;;;2.85;;
13832;SDS011;6987;19.472;-99.276;2023-06-24T01:07:11;6.95;;;3.13;;
13832;SDS011;6987;19.472;-99.276;2023-06-24T01:09:42;7.72;;;3.17;;
13832;SDS011;6987;19.472;-99.276;2023-06-24T01:12:12;4.50;;;2.75;;
13832;SDS011;6987;19.472;-99.276;2023-06-24T01:14:41;4.93;;;3.28;;
13832;SDS011;6987;19.472;-99.276;2023-06-24T01:17:11;3.65;;;2.88;;
13832;SDS011;6987;19.472;-99.276;2023-06-24T01:19:52;5.93;;;2.90;;
13832;SDS011;6987;19.472;-99.276;2023-06-24T01:22:31;4.10;;;3.00;;
13832;SDS011;6987;19.472;-99.276;2023-06-24T01:25:12;4.35;;;3.33;;
13832;SDS011;6987;19.472;-99.276;2023-06-24T01:27:58;4.65;;;3.28;;
13832;SDS011;6987;19.472;-99.276;2023-06-24T01:30:38;7.43;;;3.30;;
13832;SDS011;6987;19.472;-99.276;2023-06-24T01:33:11;3.00;;;2.80;;
13832;SDS011;6987;19.472;-99.276;2023-06-24T01:35:42;7.05;;;3.08;;
13832;SDS011;6987;19.472;-99.276;2023-06-24T01:38:13;5.40;;;3.35;;
13832;SDS011;6987;19.472;-99.276;2023-06-24T01:40:44;7.70;;;3.47;;
13832;SDS011;6987;19.472;-99.276;2023-06-24T01:43:14;3.92;;;3.45;;
13832;SDS011;6987;19.472;-99.276;2023-06-24T01:45:48;7.75;;;3.08;;
13832;SDS011;6987;19.472;-99.276;2023-06-24T01:48:21;3.33;;;2.53;;
13832;SDS011;6987;19.472;-99.276;2023-06-24T01:50:54;4.03;;;2.88;;
13832;SDS011;6987;19.472;-99.276;2023-06-24T01:53:24;4.38;;;2.50;;
13832;SDS011;6987;19.472;-99.276;2023-06-24T01:55:53;3.50;;;2.70;;
13832;SDS011;6987;19.472;-99.276;2023-06-24T01:58:23;8.95;;;2.80;;
13832;SDS011;6987;19.472;-99.276;2023-06-24T02:00:52;5.68;;;3.10;;
13832;SDS011;6987;19.472;-99.276;2023-06-24T02:03:23;3.55;;;2.78;;
13832;SDS011;6987;19.472;-99.276;2023-06-24T02:05:53;3.33;;;2.88;;
13832;SDS011;6987;19.472;-99.276;2023-06-24T02:08:22;5.53;;;2.80;;
13832;SDS011;6987;19.472;-99.276;2023-06-24T02:10:51;3.47;;;3.05;;
13832;SDS011;6987;19.472;-99.276;2023-06-24T02:13:20;5.93;;;2.97;;
13832;SDS011;6987;19.472;-99.276;2023-06-24T02:15:50;7.38;;;2.50;;
13832;SDS011;6987;19.472;-99.276;2023-06-24T02:18:20;4.85;;;2.85;;
13832;SDS011;6987;19.472;-99.276;2023-06-24T02:20:52;4.22;;;3.03;;
13832;SDS011;6987;19.472;-99.276;2023-06-24T02:23:22;3.88;;;2.67;;
13832;SDS011;6987;19.472;-99.276;2023-06-24T02:25:52;2.80;;;2.58;;
13832;SDS011;6987;19.472;-99.276;2023-06-24T02:28:21;3.55;;;3.00;;
13832;SDS011;6987;19.472;-99.276;2023-06-24T02:30:50;3.67;;;3.15;;
13832;SDS011;6987;19.472;-99.276;2023-06-24T02:33:20;6.70;;;2.60;;
13832;SDS011;6987;19.472;-99.276;2023-06-24T02:35:48;3.20;;;2.80;;
13832;SDS011;6987;19.472;-99.276;2023-06-24T02:38:19;5.38;;;2.75;;
13832;SDS011;6987;19.472;-99.276;2023-06-24T02:40:48;3.65;;;2.55;;
13832;SDS011;6987;19.472;-99.276;2023-06-24T02:43:17;4.03;;;2.85;;
13832;SDS011;6987;19.472;-99.276;2023-06-24T02:45:46;2.53;;;2.33;;
13832;SDS011;6987;19.472;-99.276;2023-06-24T02:48:16;6.72;;;2.70;;
13832;SDS011;6987;19.472;-99.276;2023-06-24T02:50:47;4.55;;;2.70;;
13832;SDS011;6987;19.472;-99.276;2023-06-24T02:53:16;3.53;;;3.28;;
13832;SDS011;6987;19.472;-99.276;2023-06-24T02:55:47;4.10;;;3.00;;
13832;SDS011;6987;19.472;-99.276;2023-06-24T02:58:16;5.05;;;2.97;;
13832;SDS011;6987;19.472;-99.276;2023-06-24T03:00:45;2.75;;;2.65;;
13832;SDS011;6987;19.472;-99.276;2023-06-24T03:03:15;3.13;;;2.92;;
13832;SDS011;6987;19.472;-99.276;2023-06-24T03:05:44;6.28;;;2.92;;
13832;SDS011;6987;19.472;-99.276;2023-06-24T03:08:16;3.72;;;2.78;;
13832;SDS011;6987;19.472;-99.276;2023-06-24T03:10:47;4.47;;;4.07;;
13832;SDS011;6987;19.472;-99.276;2023-06-24T03:13:16;4.95;;;3.47;;
13832;SDS011;6987;19.472;-99.276;2023-06-24T03:15:45;6.80;;;3.30;;
13832;SDS011;6987;19.472;-99.276;2023-06-24T03:18:15;3.75;;;3.45;;
13832;SDS011;6987;19.472;-99.276;2023-06-24T03:20:44;5.15;;;3.38;;
13832;SDS011;6987;19.472;-99.276;2023-06-24T03:23:13;4.43;;;2.78;;
13832;SDS011;6987;19.472;-99.276;2023-06-24T03:25:42;3.13;;;2.80;;
13832;SDS011;6987;19.472;-99.276;2023-06-24T03:28:13;4.32;;;3.13;;
13832;SDS011;6987;19.472;-99.276;2023-06-24T03:30:42;4.63;;;3.30;;
13832;SDS011;6987;19.472;-99.276;2023-06-24T03:33:11;5.30;;;2.72;;
13832;SDS011;6987;19.472;-99.276;2023-06-24T03:35:42;6.85;;;3.10;;
13832;SDS011;6987;19.472;-99.276;2023-06-24T03:38:12;2.92;;;2.72;;
13832;SDS011;6987;19.472;-99.276;2023-06-24T03:40:41;2.85;;;2.65;;
13832;SDS011;6987;19.472;-99.276;2023-06-24T03:43:10;3.42;;;2.90;;
13832;SDS011;6987;19.472;-99.276;2023-06-24T03:45:41;3.17;;;2.88;;
13832;SDS011;6987;19.472;-99.276;2023-06-24T03:48:10;3.15;;;2.85;;
13832;SDS011;6987;19.472;-99.276;2023-06-24T03:50:39;4.93;;;3.53;;
13832;SDS011;6987;19.472;-99.276;2023-06-24T03:53:08;4.88;;;3.85;;
13832;SDS011;6987;19.472;-99.276;2023-06-24T03:55:38;5.63;;;4.70;;
13832;SDS011;6987;19.472;-99.276;2023-06-24T03:58:07;5.18;;;4.57;;
13832;SDS011;6987;19.472;-99.276;2023-06-24T04:00:36;4.80;;;4.40;;
13832;SDS011;6987;19.472;-99.276;2023-06-24T04:03:08;4.70;;;4.10;;
13832;SDS011;6987;19.472;-99.276;2023-06-24T04:05:37;8.35;;;5.63;;
13832;SDS011;6987;19.472;-99.276;2023-06-24T04:08:06;5.50;;;5.00;;
13832;SDS011;6987;19.472;-99.276;2023-06-24T04:10:35;5.00;;;4.60;;
13832;SDS011;6987;19.472;-99.276;2023-06-24T04:13:03;5.32;;;4.82;;
13832;SDS011;6987;19.472;-99.276;2023-06-24T04:15:33;4.63;;;4.25;;
13832;SDS011;6987;19.472;-99.276;2023-06-24T04:18:01;6.90;;;3.90;;
13832;SDS011;6987;19.472;-99.276;2023-06-24T04:20:32;4.85;;;3.15;;
13832;SDS011;6987;19.472;-99.276;2023-06-24T04:23:01;2.85;;;2.65;;
13832;SDS011;6987;19.472;-99.276;2023-06-24T04:25:31;5.82;;;3.28;;
13832;SDS011;6987;19.472;-99.276;2023-06-24T04:28:00;3.35;;;3.08;;
13832;SDS011;6987;19.472;-99.276;2023-06-24T04:30:30;4.82;;;2.90;;
13832;SDS011;6987;19.472;-99.276;2023-06-24T04:33:01;3.33;;;3.03;;
13832;SDS011;6987;19.472;-99.276;2023-06-24T04:35:30;3.42;;;2.90;;
13832;SDS011;6987;19.472;-99.276;2023-06-24T04:38:00;7.47;;;3.25;;
13832;SDS011;6987;19.472;-99.276;2023-06-24T04:40:30;4.07;;;2.72;;
13832;SDS011;6987;19.472;-99.276;2023-06-24T04:42:59;3.42;;;3.10;;
13832;SDS011;6987;19.472;-99.276;2023-06-24T04:45:28;3.92;;;3.05;;
13832;SDS011;6987;19.472;-99.276;2023-06-24T04:47:56;3.03;;;2.80;;
13832;SDS011;6987;19.472;-99.276;2023-06-24T04:50:26;6.78;;;3.30;;
13832;SDS011;6987;19.472;-99.276;2023-06-24T04:52:56;3.88;;;3.08;;
13832;SDS011;6987;19.472;-99.276;2023-06-24T04:55:28;3.55;;;3.15;;
13832;SDS011;6987;19.472;-99.276;2023-06-24T04:57:57;3.30;;;3.10;;
13832;SDS011;6987;19.472;-99.276;2023-06-24T05:00:26;3.80;;;3.20;;
13832;SDS011;6987;19.472;-99.276;2023-06-24T05:02:55;3.45;;;3.20;;
13832;SDS011;6987;19.472;-99.276;2023-06-24T05:05:24;3.40;;;3.20;;
13832;SDS011;6987;19.472;-99.276;2023-06-24T05:07:53;3.58;;;3.28;;
13832;SDS011;6987;19.472;-99.276;2023-06-24T05:10:22;3.45;;;3.15;;
13832;SDS011;6987;19.472;-99.276;2023-06-24T05:12:53;5.97;;;3.60;;
13832;SDS011;6987;19.472;-99.276;2023-06-24T05:15:22;3.38;;;3.05;;
13832;SDS011;6987;19.472;-99.276;2023-06-24T05:17:51;10.68;;;3.75;;
13832;SDS011;6987;19.472;-99.276;2023-06-24T05:20:21;6.88;;;3.53;;
13832;SDS011;6987;19.472;-99.276;2023-06-24T05:22:50;3.88;;;3.17;;
13832;SDS011;6987;19.472;-99.276;2023-06-24T05:25:19;3.55;;;3.17;;
13832;SDS011;6987;19.472;-99.276;2023-06-24T05:27:48;4.15;;;3.03;;
13832;SDS011;6987;19.472;-99.276;2023-06-24T05:30:19;3.78;;;3.47;;
13832;SDS011;6987;19.472;-99.276;2023-06-24T05:32:48;3.28;;;3.08;;
13832;SDS011;6987;19.472;-99.276;2023-06-24T05:35:18;7.15;;;3.72;;
13832;SDS011;6987;19.472;-99.276;2023-06-24T05:37:47;3.17;;;2.97;;
13832;SDS011;6987;19.472;-99.276;2023-06-24T05:40:16;3.78;;;3.47;;
13832;SDS011;6987;19.472;-99.276;2023-06-24T05:42:45;3.17;;;2.97;;
13832;SDS011;6987;19.472;-99.276;2023-06-24T05:45:14;4.25;;;3.67;;
13832;SDS011;6987;19.472;-99.276;2023-06-24T05:47:45;3.70;;;3.45;;
13832;SDS011;6987;19.472;-99.276;2023-06-24T05:50:14;3.72;;;3.53;;
13832;SDS011;6987;19.472;-99.276;2023-06-24T05:52:43;4.82;;;3.63;;
13832;SDS011;6987;19.472;-99.276;2023-06-24T05:55:12;5.22;;;3.58;;
13832;SDS011;6987;19.472;-99.276;2023-06-24T05:57:42;3.53;;;3.13;;
13832;SDS011;6987;19.472;-99.276;2023-06-24T06:00:11;4.00;;;3.60;;
13832;SDS011;6987;19.472;-99.276;2023-06-24T06:02:40;3.40;;;3.03;;
13832;SDS011;6987;19.472;-99.276;2023-06-24T06:05:11;3.78;;;2.92;;
13832;SDS011;6987;19.472;-99.276;2023-06-24T06:07:40;3.58;;;3.13;;
13832;SDS011;6987;19.472;-99.276;2023-06-24T06:10:09;3.80;;;3.47;;
13832;SDS011;6987;19.472;-99.276;2023-06-24T06:12:41;2.85;;;2.75;;
13832;SDS011;6987;19.472;-99.276;2023-06-24T06:15:10;3.08;;;2.83;;
13832;SDS011;6987;19.472;-99.276;2023-06-24T06:17:39;3.75;;;3.10;;
13832;SDS011;6987;19.472;-99.276;2023-06-24T06:20:09;2.97;;;2.78;;
13832;SDS011;6987;19.472;-99.276;2023-06-24T06:22:41;3.38;;;2.67;;
13832;SDS011;6987;19.472;-99.276;2023-06-24T06:25:10;3.15;;;2.88;;
13832;SDS011;6987;19.472;-99.276;2023-06-24T06:27:39;3.03;;;2.83;;
13832;SDS011;6987;19.472;-99.276;2023-06-24T06:30:08;5.03;;;3.50;;
13832;SDS011;6987;19.472;-99.276;2023-06-24T06:32:37;3.67;;;3.05;;
13832;SDS011;6987;19.472;-99.276;2023-06-24T06:35:07;3.42;;;3.15;;
13832;SDS011;6987;19.472;-99.276;2023-06-24T06:37:36;3.35;;;3.13;;
13832;SDS011;6987;19.472;-99.276;2023-06-24T06:40:08;3.20;;;2.97;;
13832;SDS011;6987;19.472;-99.276;2023-06-24T06:42:37;3.13;;;2.80;;
13832;SDS011;6987;19.472;-99.276;2023-06-24T06:45:06;3.35;;;3.03;;
13832;SDS011;6987;19.472;-99.276;2023-06-24T06:47:35;3.13;;;2.90;;
13832;SDS011;6987;19.472;-99.276;2023-06-24T06:50:05;3.35;;;3.08;;
13832;SDS011;6987;19.472;-99.276;2023-06-24T06:52:34;3.17;;;2.97;;
13832;SDS011;6987;19.472;-99.276;2023-06-24T06:55:04;4.82;;;2.85;;
13832;SDS011;6987;19.472;-99.276;2023-06-24T06:57:35;3.38;;;3.08;;
13832;SDS011;6987;19.472;-99.276;2023-06-24T07:00:04;4.07;;;3.30;;
13832;SDS011;6987;19.472;-99.276;2023-06-24T07:02:33;3.78;;;2.90;;
13832;SDS011;6987;19.472;-99.276;2023-06-24T07:05:02;3.58;;;3.17;;
13832;SDS011;6987;19.472;-99.276;2023-06-24T07:07:32;3.45;;;3.20;;
13832;SDS011;6987;19.472;-99.276;2023-06-24T07:10:01;3.10;;;2.80;;
13832;SDS011;6987;19.472;-99.276;2023-06-24T07:12:30;3.35;;;3.10;;
13832;SDS011;6987;19.472;-99.276;2023-06-24T07:15:01;2.83;;;2.63;;
13832;SDS011;6987;19.472;-99.276;2023-06-24T07:17:30;3.22;;;2.95;;
13832;SDS011;6987;19.472;-99.276;2023-06-24T07:19:59;4.43;;;3.17;;
13832;SDS011;6987;19.472;-99.276;2023-06-24T07:22:28;3.28;;;3.08;;
13832;SDS011;6987;19.472;-99.276;2023-06-24T07:24:57;3.25;;;2.95;;
13832;SDS011;6987;19.472;-99.276;2023-06-24T07:27:26;3.00;;;2.80;;
13832;SDS011;6987;19.472;-99.276;2023-06-24T07:29:55;6.28;;;3.17;;
13832;SDS011;6987;19.472;-99.276;2023-06-24T07:32:26;3.22;;;2.92;;
13832;SDS011;6987;19.472;-99.276;2023-06-24T07:34:54;7.53;;;3.10;;
13832;SDS011;6987;19.472;-99.276;2023-06-24T07:37:23;4.18;;;3.78;;
13832;SDS011;6987;19.472;-99.276;2023-06-24T07:39:53;3.42;;;3.13;;
13832;SDS011;6987;19.472;-99.276;2023-06-24T07:42:22;3.03;;;2.83;;
13832;SDS011;6987;19.472;-99.276;2023-06-24T07:44:52;3.67;;;3.38;;
13832;SDS011;6987;19.472;-99.276;2023-06-24T07:47:21;3.83;;;3.53;;
13832;SDS011;6987;19.472;-99.276;2023-06-24T07:49:52;5.15;;;3.15;;
13832;SDS011;6987;19.472;-99.276;2023-06-24T07:52:21;3.97;;;3.42;;
13832;SDS011;6987;19.472;-99.276;2023-06-24T07:54:50;3.92;;;3.50;;
13832;SDS011;6987;19.472;-99.276;2023-06-24T07:57:19;7.07;;;3.90;;
13832;SDS011;6987;19.472;-99.276;2023-06-24T07:59:48;4.00;;;3.80;;
13832;SDS011;6987;19.472;-99.276;2023-06-24T08:02:20;3.70;;;3.40;;
13832;SDS011;6987;19.472;-99.276;2023-06-24T08:04:51;4.35;;;4.03;;
13832;SDS011;6987;19.472;-99.276;2023-06-24T08:07:20;5.00;;;3.40;;
13832;SDS011;6987;19.472;-99.276;2023-06-24T08:09:49;4.35;;;3.78;;
13832;SDS011;6987;19.472;-99.276;2023-06-24T08:12:18;4.78;;;4.28;;
13832;SDS011;6987;19.472;-99.276;2023-06-24T08:14:47;4.70;;;4.15;;
13832;SDS011;6987;19.472;-99.276;2023-06-24T08:17:16;6.00;;;3.53;;
13832;SDS011;6987;19.472;-99.276;2023-06-24T08:19:45;7.00;;;4.35;;
13832;SDS011;6987;19.472;-99.276;2023-06-24T08:22:15;5.50;;;4.32;;
13832;SDS011;6987;19.472;-99.276;2023-06-24T08:24:44;5.20;;;4.20;;
13832;SDS011;6987;19.472;-99.276;2023-06-24T08:27:14;7.78;;;4.05;;
13832;SDS011;6987;19.472;-99.276;2023-06-24T08:29:42;5.63;;;3.90;;
13832;SDS011;6987;19.472;-99.276;2023-06-24T08:32:11;3.80;;;3.55;;
13832;SDS011;6987;19.472;-99.276;2023-06-24T08:34:41;5.45;;;3.40;;
13832;SDS011;6987;19.472;-99.276;2023-06-24T08:37:09;7.40;;;4.72;;
13832;SDS011;6987;19.472;-99.276;2023-06-24T08:39:40;5.68;;;4.40;;
13832;SDS011;6987;19.472;-99.276;2023-06-24T08:42:09;4.55;;;4.15;;
13832;SDS011;6987;19.472;-99.276;2023-06-24T08:44:38;5.07;;;4.45;;
13832;SDS011;6987;19.472;-99.276;2023-06-24T08:47:07;4.78;;;4.20;;
13832;SDS011;6987;19.472;-99.276;2023-06-24T08:49:38;6.43;;;4.40;;
13832;SDS011;6987;19.472;-99.276;2023-06-24T08:52:13;6.90;;;4.95;;
13832;SDS011;6987;19.472;-99.276;2023-06-24T08:54:45;6.00;;;4.68;;
13832;SDS011;6987;19.472;-99.276;2023-06-24T08:57:15;4.80;;;4.32;;
13832;SDS011;6987;19.472;-99.276;2023-06-24T08:59:44;4.20;;;3.90;;
13832;SDS011;6987;19.472;-99.276;2023-06-24T09:02:14;4.82;;;4.10;;
13832;SDS011;6987;19.472;-99.276;2023-06-24T09:04:47;4.82;;;4.20;;
13832;SDS011;6987;19.472;-99.276;2023-06-24T09:07:23;7.82;;;4.25;;
13832;SDS011;6987;19.472;-99.276;2023-06-24T09:09:56;4.72;;;4.22;;
13832;SDS011;6987;19.472;-99.276;2023-06-24T09:12:26;5.55;;;5.05;;
13832;SDS011;6987;19.472;-99.276;2023-06-24T09:14:55;5.22;;;4.75;;
13832;SDS011;6987;19.472;-99.276;2023-06-24T09:17:24;7.05;;;4.30;;
13832;SDS011;6987;19.472;-99.276;2023-06-24T09:19:54;6.78;;;5.10;;
13832;SDS011;6987;19.472;-99.276;2023-06-24T09:22:32;4.95;;;4.45;;
13832;SDS011;6987;19.472;-99.276;2023-06-24T09:25:02;4.43;;;3.97;;
13832;SDS011;6987;19.472;-99.276;2023-06-24T09:27:31;4.53;;;4.13;;
13832;SDS011;6987;19.472;-99.276;2023-06-24T09:30:00;5.10;;;4.50;;
13832;SDS011;6987;19.472;-99.276;2023-06-24T09:32:45;4.78;;;4.38;;
13832;SDS011;6987;19.472;-99.276;2023-06-24T09:35:15;6.65;;;3.92;;
13832;SDS011;6987;19.472;-99.276;2023-06-24T09:37:49;4.28;;;3.88;;
13832;SDS011;6987;19.472;-99.276;2023-06-24T09:40:20;4.80;;;3.90;;
13832;SDS011;6987;19.472;-99.276;2023-06-24T09:42:50;5.10;;;3.70;;
13832;SDS011;6987;19.472;-99.276;2023-06-24T09:45:20;4.72;;;3.80;;
13832;SDS011;6987;19.472;-99.276;2023-06-24T09:47:50;4.38;;;3.97;;
13832;SDS011;6987;19.472;-99.276;2023-06-24T09:50:19;3.60;;;3.30;;
13832;SDS011;6987;19.472;-99.276;2023-06-24T09:52:48;4.45;;;3.33;;
13832;SDS011;6987;19.472;-99.276;2023-06-24T09:55:17;4.03;;;3.58;;
13832;SDS011;6987;19.472;-99.276;2023-06-24T09:57:49;6.63;;;3.45;;
13832;SDS011;6987;19.472;-99.276;2023-06-24T10:00:19;4.05;;;3.50;;
13832;SDS011;6987;19.472;-99.276;2023-06-24T10:02:52;7.80;;;3.30;;
13832;SDS011;6987;19.472;-99.276;2023-06-24T10:05:22;4.32;;;3.78;;
13832;SDS011;6987;19.472;-99.276;2023-06-24T10:07:51;5.30;;;3.17;;
13832;SDS011;6987;19.472;-99.276;2023-06-24T10:10:20;3.33;;;3.13;;
13832;SDS011;6987;19.472;-99.276;2023-06-24T10:12:51;4.55;;;3.03;;
13832;SDS011;6987;19.472;-99.276;2023-06-24T10:15:21;4.25;;;3.38;;
13832;SDS011;6987;19.472;-99.276;2023-06-24T10:17:50;3.53;;;3.28;;
13832;SDS011;6987;19.472;-99.276;2023-06-24T10:20:23;3.72;;;3.20;;
13832;SDS011;6987;19.472;-99.276;2023-06-24T10:22:53;4.22;;;3.70;;
13832;SDS011;6987;19.472;-99.276;2023-06-24T10:25:24;5.90;;;3.38;;
13832;SDS011;6987;19.472;-99.276;2023-06-24T10:27:55;4.05;;;3.75;;
13832;SDS011;6987;19.472;-99.276;2023-06-24T10:30:24;5.75;;;4.00;;
13832;SDS011;6987;19.472;-99.276;2023-06-24T10:32:54;5.15;;;3.95;;
13832;SDS011;6987;19.472;-99.276;2023-06-24T10:35:23;6.10;;;3.47;;
13832;SDS011;6987;19.472;-99.276;2023-06-24T10:37:55;6.03;;;2.83;;
13832;SDS011;6987;19.472;-99.276;2023-06-24T10:40:37;3.80;;;3.55;;
13832;SDS011;6987;19.472;-99.276;2023-06-24T10:46:06;5.30;;;4.50;;
13832;SDS011;6987;19.472;-99.276;2023-06-24T10:48:45;4.60;;;4.13;;
13832;SDS011;6987;19.472;-99.276;2023-06-24T10:51:15;5.22;;;4.50;;
13832;SDS011;6987;19.472;-99.276;2023-06-24T10:53:44;4.35;;;3.95;;
13832;SDS011;6987;19.472;-99.276;2023-06-24T10:56:13;4.28;;;3.97;;
13832;SDS011;6987;19.472;-99.276;2023-06-24T10:58:54;5.82;;;4.38;;
13832;SDS011;6987;19.472;-99.276;2023-06-24T11:01:25;4.72;;;4.32;;
13832;SDS011;6987;19.472;-99.276;2023-06-24T11:03:54;5.28;;;4.80;;
13832;SDS011;6987;19.472;-99.276;2023-06-24T11:06:23;7.28;;;5.03;;
13832;SDS011;6987;19.472;-99.276;2023-06-24T11:08:52;5.15;;;4.68;;
13832;SDS011;6987;19.472;-99.276;2023-06-24T11:11:21;4.80;;;3.97;;
13832;SDS011;6987;19.472;-99.276;2023-06-24T11:13:51;4.88;;;4.50;;
13832;SDS011;6987;19.472;-99.276;2023-06-24T11:16:21;6.63;;;4.75;;
13832;SDS011;6987;19.472;-99.276;2023-06-24T11:18:52;8.02;;;4.50;;
13832;SDS011;6987;19.472;-99.276;2023-06-24T11:21:27;7.07;;;4.82;;
13832;SDS011;6987;19.472;-99.276;2023-06-24T11:24:00;5.30;;;4.70;;
13832;SDS011;6987;19.472;-99.276;2023-06-24T11:26:29;6.00;;;5.30;;
13832;SDS011;6987;19.472;-99.276;2023-06-24T11:28:57;5.00;;;4.20;;
13832;SDS011;6987;19.472;-99.276;2023-06-24T11:31:26;5.55;;;5.05;;
13832;SDS011;6987;19.472;-99.276;2023-06-24T11:34:00;7.03;;;6.35;;
13832;SDS011;6987;19.472;-99.276;2023-06-24T11:36:29;6.85;;;6.35;;
13832;SDS011;6987;19.472;-99.276;2023-06-24T11:38:58;7.30;;;6.32;;
13832;SDS011;6987;19.472;-99.276;2023-06-24T11:41:27;5.50;;;5.00;;
13832;SDS011;6987;19.472;-99.276;2023-06-24T11:43:59;6.60;;;6.00;;
13832;SDS011;6987;19.472;-99.276;2023-06-24T11:46:31;8.50;;;5.45;;
13832;SDS011;6987;19.472;-99.276;2023-06-24T11:49:06;6.20;;;5.68;;
13832;SDS011;6987;19.472;-99.276;2023-06-24T11:51:35;6.07;;;5.57;;
13832;SDS011;6987;19.472;-99.276;2023-06-24T11:54:07;9.57;;;5.80;;
13832;SDS011;6987;19.472;-99.276;2023-06-24T11:56:36;6.43;;;5.80;;
13832;SDS011;6987;19.472;-99.276;2023-06-24T11:59:07;6.30;;;5.18;;
13832;SDS011;6987;19.472;-99.276;2023-06-24T12:01:36;5.90;;;5.43;;
13832;SDS011;6987;19.472;-99.276;2023-06-24T12:04:11;9.63;;;5.45;;
13832;SDS011;6987;19.472;-99.276;2023-06-24T12:06:40;7.00;;;5.32;;
13832;SDS011;6987;19.472;-99.276;2023-06-24T12:09:09;9.57;;;4.90;;
13832;SDS011;6987;19.472;-99.276;2023-06-24T12:11:38;6.75;;;6.05;;
13832;SDS011;6987;19.472;-99.276;2023-06-24T12:14:08;10.52;;;6.45;;
13832;SDS011;6987;19.472;-99.276;2023-06-24T12:16:37;8.63;;;5.60;;
13832;SDS011;6987;19.472;-99.276;2023-06-24T12:19:06;6.18;;;5.68;;
13832;SDS011;6987;19.472;-99.276;2023-06-24T12:21:37;6.22;;;5.60;;
13832;SDS011;6987;19.472;-99.276;2023-06-24T12:24:06;7.18;;;5.63;;
13832;SDS011;6987;19.472;-99.276;2023-06-24T12:26:35;7.28;;;6.20;;
13832;SDS011;6987;19.472;-99.276;2023-06-24T12:29:05;7.85;;;5.47;;
13832;SDS011;6987;19.472;-99.276;2023-06-24T12:31:34;11.10;;;5.97;;
13832;SDS011;6987;19.472;-99.276;2023-06-24T12:34:03;8.23;;;5.82;;
13832;SDS011;6987;19.472;-99.276;2023-06-24T12:36:33;8.55;;;6.05;;
13832;SDS011;6987;19.472;-99.276;2023-06-24T12:39:04;9.48;;;5.93;;
13832;SDS011;6987;19.472;-99.276;2023-06-24T12:41:33;6.82;;;5.68;;
13832;SDS011;6987;19.472;-99.276;2023-06-24T12:44:02;8.10;;;5.20;;
13832;SDS011;6987;19.472;-99.276;2023-06-24T12:46:31;6.05;;;5.45;;
13832;SDS011;6987;19.472;-99.276;2023-06-24T12:49:00;5.60;;;5.20;;
13832;SDS011;6987;19.472;-99.276;2023-06-24T12:51:29;11.00;;;5.60;;
13832;SDS011;6987;19.472;-99.276;2023-06-24T12:53:58;6.95;;;5.78;;
13832;SDS011;6987;19.472;-99.276;2023-06-24T12:56:28;6.30;;;5.70;;
13832;SDS011;6987;19.472;-99.276;2023-06-24T12:58:57;8.23;;;5.70;;
13832;SDS011;6987;19.472;-99.276;2023-06-24T13:01:26;9.73;;;5.43;;
13832;SDS011;6987;19.472;-99.276;2023-06-24T13:03:55;11.77;;;5.43;;
13832;SDS011;6987;19.472;-99.276;2023-06-24T13:06:24;8.63;;;5.63;;
13832;SDS011;6987;19.472;-99.276;2023-06-24T13:08:53;5.97;;;5.35;;
13832;SDS011;6987;19.472;-99.276;2023-06-24T13:11:23;7.97;;;5.40;;
13832;SDS011;6987;19.472;-99.276;2023-06-24T13:13:54;6.43;;;5.45;;
13832;SDS011;6987;19.472;-99.276;2023-06-24T13:16:23;6.50;;;4.95;;
13832;SDS011;6987;19.472;-99.276;2023-06-24T13:18:52;5.80;;;5.00;;
13832;SDS011;6987;19.472;-99.276;2023-06-24T13:21:20;17.20;;;5.45;;
13832;SDS011;6987;19.472;-99.276;2023-06-24T13:23:49;6.68;;;4.90;;
13832;SDS011;6987;19.472;-99.276;2023-06-24T13:26:18;13.07;;;5.35;;
13832;SDS011;6987;19.472;-99.276;2023-06-24T13:28:47;7.63;;;5.25;;
13832;SDS011;6987;19.472;-99.276;2023-06-24T13:31:18;5.18;;;4.68;;
13832;SDS011;6987;19.472;-99.276;2023-06-24T13:33:47;7.00;;;4.45;;
13832;SDS011;6987;19.472;-99.276;2023-06-24T13:36:28;11.82;;;5.38;;
13832;SDS011;6987;19.472;-99.276;2023-06-24T13:38:57;9.95;;;5.18;;
13832;SDS011;6987;19.472;-99.276;2023-06-24T13:41:26;10.90;;;4.60;;
13832;SDS011;6987;19.472;-99.276;2023-06-24T13:43:58;16.55;;;5.80;;
13832;SDS011;6987;19.472;-99.276;2023-06-24T13:46:29;12.52;;;6.35;;
13832;SDS011;6987;19.472;-99.276;2023-06-24T13:48:58;10.52;;;6.03;;
13832;SDS011;6987;19.472;-99.276;2023-06-24T13:51:27;16.00;;;7.15;;
13832;SDS011;6987;19.472;-99.276;2023-06-24T13:53:56;20.33;;;7.25;;
13832;SDS011;6987;19.472;-99.276;2023-06-24T13:56:25;8.85;;;5.60;;
13832;SDS011;6987;19.472;-99.276;2023-06-24T13:58:55;12.57;;;5.60;;
13832;SDS011;6987;19.472;-99.276;2023-06-24T14:01:24;6.60;;;5.35;;
13832;SDS011;6987;19.472;-99.276;2023-06-24T14:03:55;5.75;;;5.13;;
13832;SDS011;6987;19.472;-99.276;2023-06-24T14:06:25;7.40;;;4.63;;
13832;SDS011;6987;19.472;-99.276;2023-06-24T14:08:53;11.55;;;4.72;;
13832;SDS011;6987;19.472;-99.276;2023-06-24T14:11:23;10.02;;;5.22;;
13832;SDS011;6987;19.472;-99.276;2023-06-24T14:13:52;8.60;;;4.20;;
13832;SDS011;6987;19.472;-99.276;2023-06-24T14:16:21;7.43;;;3.95;;
13832;SDS011;6987;19.472;-99.276;2023-06-24T14:18:50;3.88;;;3.58;;
13832;SDS011;6987;19.472;-99.276;2023-06-24T14:21:21;6.40;;;3.75;;
13832;SDS011;6987;19.472;-99.276;2023-06-24T14:23:50;6.57;;;3.45;;
13832;SDS011;6987;19.472;-99.276;2023-06-24T14:26:19;2.92;;;2.72;;
13832;SDS011;6987;19.472;-99.276;2023-06-24T14:28:48;4.47;;;2.88;;
13832;SDS011;6987;19.472;-99.276;2023-06-24T14:31:18;8.18;;;3.15;;
13832;SDS011;6987;19.472;-99.276;2023-06-24T14:33:47;3.22;;;3.03;;
13832;SDS011;6987;19.472;-99.276;2023-06-24T14:36:16;2.90;;;2.70;;
13832;SDS011;6987;19.472;-99.276;2023-06-24T14:38:46;3.00;;;2.80;;
13832;SDS011;6987;19.472;-99.276;2023-06-24T14:41:16;3.08;;;2.90;;
13832;SDS011;6987;19.472;-99.276;2023-06-24T14:43:45;2.70;;;2.50;;
13832;SDS011;6987;19.472;-99.276;2023-06-24T14:46:13;3.47;;;2.65;;
13832;SDS011;6987;19.472;-99.276;2023-06-24T14:48:42;3.67;;;2.85;;
13832;SDS011;6987;19.472;-99.276;2023-06-24T14:51:11;5.22;;;2.35;;
13832;SDS011;6987;19.472;-99.276;2023-06-24T14:53:40;3.00;;;2.83;;